createdAt,value
2018-02-08T00:01:29.440Z,-0.55
2018-02-08T00:03:57.877Z,-0.81
2018-02-08T00:06:26.280Z,-1.03
2018-02-08T00:08:54.705Z,-0.88
2018-02-08T00:11:23.142Z,-1.43
2018-02-08T00:13:51.624Z,-1.27
2018-02-08T00:16:20.021Z,-1.40
2018-02-08T00:18:48.513Z,-1.31
2018-02-08T00:21:16.909Z,-1.36
2018-02-08T00:23:45.380Z,-0.93
2018-02-08T00:26:13.847Z,-0.99
2018-02-08T00:28:42.247Z,-0.93
2018-02-08T00:31:10.649Z,-1.35
2018-02-08T00:33:39.065Z,-1.12
2018-02-08T00:36:07.468Z,-1.29
2018-02-08T00:38:35.939Z,-1.20
2018-02-08T00:41:04.365Z,-1.54
2018-02-08T00:43:32.758Z,-0.99
2018-02-08T00:46:01.187Z,-1.49
2018-02-08T00:48:29.639Z,-1.07
2018-02-08T00:50:58.114Z,-1.45
2018-02-08T00:53:26.610Z,-1.29
2018-02-08T00:55:55.031Z,-1.09
2018-02-08T00:58:23.431Z,-1.11
2018-02-08T01:00:51.843Z,-1.01
2018-02-08T01:03:20.309Z,-1.19
2018-02-08T01:05:48.710Z,-1.10
2018-02-08T01:08:17.127Z,-1.10
2018-02-08T01:10:45.545Z,-0.91
2018-02-08T01:13:13.940Z,-0.96
2018-02-08T01:15:42.425Z,-1.20
2018-02-08T01:18:10.919Z,-1.53
2018-02-08T01:20:39.332Z,-1.44
2018-02-08T01:23:07.758Z,-1.07
2018-02-08T01:25:36.187Z,-1.24
2018-02-08T01:28:04.834Z,-1.04
2018-02-08T01:30:33.334Z,-1.28
2018-02-08T01:33:01.738Z,-1.26
2018-02-08T01:35:30.138Z,-0.51
2018-02-08T01:37:58.532Z,-0.38
2018-02-08T01:40:27.090Z,-0.62
2018-02-08T01:42:55.492Z,-0.42
2018-02-08T01:45:23.902Z,-0.87
2018-02-08T01:47:52.298Z,-0.92
2018-02-08T01:50:20.702Z,-1.23
2018-02-08T01:52:49.191Z,-1.16
2018-02-08T01:55:17.590Z,-1.86
2018-02-08T01:57:46.011Z,-1.76
2018-02-08T02:00:14.419Z,-1.80
2018-02-08T02:02:42.901Z,-1.62
2018-02-08T02:05:11.380Z,-1.46
2018-02-08T02:07:39.782Z,-1.56
2018-02-08T02:10:08.180Z,-1.58
2018-02-08T02:12:36.565Z,-1.43
2018-02-08T02:15:05.119Z,-1.11
2018-02-08T02:17:33.590Z,-1.29
2018-02-08T02:20:02.004Z,-1.59
2018-02-08T02:22:30.426Z,-1.53
2018-02-08T02:24:58.834Z,-1.40
2018-02-08T02:27:27.248Z,-1.39
2018-02-08T02:29:55.697Z,-1.40
2018-02-08T02:32:24.122Z,-1.44
2018-02-08T02:34:52.672Z,-1.27
2018-02-08T02:37:21.176Z,-1.33
2018-02-08T02:39:49.563Z,-1.61
2018-02-08T02:42:17.971Z,-1.88
2018-02-08T02:44:46.387Z,-1.83
2018-02-08T02:47:14.877Z,-1.78
2018-02-08T02:49:43.295Z,-1.89
2018-02-08T02:52:11.702Z,-2.27
2018-02-08T02:54:40.115Z,-1.95
2018-02-08T02:57:08.587Z,-2.12
2018-02-08T02:59:37.035Z,-1.85
2018-02-08T03:02:05.459Z,-1.73
2018-02-08T03:04:33.946Z,-2.10
2018-02-08T03:07:02.366Z,-1.74
2018-02-08T03:09:30.775Z,-2.02
2018-02-08T03:11:59.189Z,-1.95
2018-02-08T03:14:27.586Z,-1.25
2018-02-08T03:16:56.009Z,-1.67
2018-02-08T03:19:24.414Z,-1.52
2018-02-08T03:21:52.882Z,-1.55
2018-02-08T03:24:21.292Z,-1.46
2018-02-08T03:26:49.700Z,-1.45
2018-02-08T03:29:18.120Z,-1.93
2018-02-08T03:31:46.529Z,-1.76
2018-02-08T03:34:14.969Z,-1.49
2018-02-08T03:36:43.374Z,-2.14
2018-02-08T03:39:11.915Z,-1.92
2018-02-08T03:41:40.406Z,-2.24
2018-02-08T03:44:08.820Z,-2.12
2018-02-08T03:46:37.233Z,-2.17
2018-02-08T03:49:05.634Z,-1.84
2018-02-08T03:51:34.383Z,-2.24
2018-02-08T03:54:02.799Z,-2.23
2018-02-08T03:56:31.201Z,-1.89
2018-02-08T03:58:59.673Z,-1.81
2018-02-08T04:01:28.135Z,-2.37
2018-02-08T04:03:56.562Z,-1.86
2018-02-08T04:06:24.951Z,-2.09
2018-02-08T04:08:53.393Z,-2.39
2018-02-08T04:11:21.798Z,-2.57
2018-02-08T04:13:50.266Z,-2.28
2018-02-08T04:16:18.669Z,-2.24
2018-02-08T04:18:47.224Z,-2.18
2018-02-08T04:21:15.659Z,-1.82
2018-02-08T04:23:44.098Z,-1.98
2018-02-08T04:26:12.539Z,-2.64
2018-02-08T04:28:40.943Z,-2.38
2018-02-08T04:31:09.710Z,-2.68
2018-02-08T04:33:38.099Z,-2.74
2018-02-08T04:36:06.585Z,-2.74
2018-02-08T04:38:46.876Z,-2.45
2018-02-08T04:41:26.888Z,-2.52
2018-02-08T04:47:07.653Z,-2.88
2018-02-08T04:49:36.059Z,-2.48
2018-02-08T04:52:04.484Z,-2.87
2018-02-08T04:54:32.875Z,-2.56
2018-02-08T04:57:01.647Z,-2.53
2018-02-08T04:59:30.045Z,-2.78
2018-02-08T05:02:01.769Z,-2.98
2018-02-08T05:04:30.178Z,-3.00
2018-02-08T05:06:58.594Z,-2.93
2018-02-08T05:09:27.135Z,-3.29
2018-02-08T05:11:55.556Z,-2.89
2018-02-08T05:14:23.985Z,-3.00
2018-02-08T05:16:52.438Z,-3.08
2018-02-08T05:19:20.894Z,-3.00
2018-02-08T05:21:49.300Z,-3.19
2018-02-08T05:24:18.051Z,-3.38
2018-02-08T05:26:46.465Z,-3.03
2018-02-08T05:29:14.942Z,-3.40
2018-02-08T05:31:44.316Z,-2.90
2018-02-08T05:34:12.696Z,-2.68
2018-02-08T05:36:41.066Z,-2.62
2018-02-08T05:39:09.573Z,-3.17
2018-02-08T05:41:37.993Z,-2.75
2018-02-08T05:44:06.455Z,-3.51
2018-02-08T05:46:34.874Z,-3.13
2018-02-08T05:49:03.299Z,-2.93
2018-02-08T05:51:31.756Z,-2.54
2018-02-08T05:54:00.164Z,-2.59
2018-02-08T05:56:28.587Z,-2.49
2018-02-08T05:58:57.078Z,-2.40
2018-02-08T06:01:25.518Z,-2.38
2018-02-08T06:03:53.956Z,-2.31
2018-02-08T06:06:22.807Z,-2.47
2018-02-08T06:08:51.311Z,-2.89
2018-02-08T06:11:19.701Z,-2.66
2018-02-08T06:13:48.278Z,-2.84
2018-02-08T06:16:16.693Z,-2.95
2018-02-08T06:18:45.118Z,-3.26
2018-02-08T06:21:13.587Z,-2.77
2018-02-08T06:23:41.996Z,-2.72
2018-02-08T06:26:10.416Z,-2.72
2018-02-08T06:28:38.888Z,-2.85
2018-02-08T06:31:07.299Z,-2.55
2018-02-08T06:33:35.717Z,-2.48
2018-02-08T06:36:04.106Z,-2.74
2018-02-08T06:38:32.522Z,-3.05
2018-02-08T06:41:01.171Z,-3.23
2018-02-08T06:43:29.596Z,-2.69
2018-02-08T06:45:58.009Z,-3.09
2018-02-08T06:48:26.473Z,-2.66
2018-02-08T06:50:54.891Z,-2.84
2018-02-08T06:53:23.310Z,-2.71
2018-02-08T06:55:51.764Z,-2.79
2018-02-08T06:58:20.167Z,-3.34
2018-02-08T07:00:48.577Z,-3.09
2018-02-08T07:03:17.005Z,-2.96
2018-02-08T07:05:45.511Z,-3.00
2018-02-08T07:08:13.988Z,-3.30
2018-02-08T07:10:42.411Z,-2.83
2018-02-08T07:13:10.834Z,-2.73
2018-02-08T07:15:39.251Z,-3.26
2018-02-08T07:18:07.671Z,-2.48
2018-02-08T07:20:36.152Z,-3.11
2018-02-08T07:23:04.557Z,-2.84
2018-02-08T07:25:33.049Z,-2.65
2018-02-08T07:28:01.448Z,-2.67
2018-02-08T07:30:29.854Z,-2.61
2018-02-08T07:32:58.313Z,-2.18
2018-02-08T07:35:26.723Z,-2.42
2018-02-08T07:37:55.152Z,-2.49
2018-02-08T07:40:23.576Z,-2.62
2018-02-08T07:42:52.003Z,-2.21
2018-02-08T07:45:20.495Z,-2.32
2018-02-08T07:47:48.890Z,-2.18
2018-02-08T07:50:17.324Z,-1.77
2018-02-08T07:52:45.725Z,-1.75
2018-02-08T07:55:14.135Z,-1.34
2018-02-08T07:57:42.605Z,-1.63
2018-02-08T08:00:11.026Z,-1.44
2018-02-08T08:02:39.450Z,-1.10
2018-02-08T08:05:07.859Z,-0.85
2018-02-08T08:07:36.254Z,-0.19
2018-02-08T08:10:05.140Z,-0.23
2018-02-08T08:12:33.551Z,-0.02
2018-02-08T08:15:02.043Z,-0.13
2018-02-08T08:17:30.446Z,0.56
2018-02-08T08:19:58.978Z,0.60
2018-02-08T08:22:27.459Z,0.43
2018-02-08T08:24:55.944Z,0.27
2018-02-08T08:27:24.365Z,-0.08
2018-02-08T08:29:52.786Z,0.95
2018-02-08T08:32:21.188Z,1.17
2018-02-08T08:34:50.074Z,0.27
2018-02-08T08:37:18.559Z,0.38
2018-02-08T08:39:46.950Z,0.59
2018-02-08T08:42:15.390Z,1.00
2018-02-08T08:44:43.808Z,1.54
2018-02-08T08:47:12.197Z,2.16
2018-02-08T08:49:40.607Z,2.65
2018-02-08T08:52:09.036Z,3.25
2018-02-08T08:54:37.572Z,3.77
2018-02-08T08:57:06.020Z,5.41
2018-02-08T08:59:34.423Z,5.04
2018-02-08T09:02:02.829Z,5.14
2018-02-08T09:04:31.244Z,5.18
2018-02-08T09:06:59.702Z,4.63
2018-02-08T09:09:28.190Z,4.53
2018-02-08T09:11:56.620Z,4.72
2018-02-08T09:14:25.021Z,4.95
2018-02-08T09:16:53.410Z,4.17
2018-02-08T09:19:21.964Z,4.92
2018-02-08T09:21:50.371Z,5.93
2018-02-08T09:24:18.840Z,5.15
2018-02-08T09:26:47.270Z,7.38
2018-02-08T09:29:15.754Z,9.04
2018-02-08T09:31:44.177Z,7.94
2018-02-08T09:34:12.586Z,8.67
2018-02-08T09:36:41.011Z,11.80
2018-02-08T09:39:09.425Z,9.83
2018-02-08T09:41:37.878Z,10.45
2018-02-08T09:44:06.294Z,10.03
2018-02-08T09:46:34.769Z,9.13
2018-02-08T09:49:03.169Z,10.19
2018-02-08T09:51:31.586Z,9.02
2018-02-08T09:54:00.019Z,10.28
2018-02-08T09:56:28.421Z,12.97
2018-02-08T09:58:57.253Z,13.79
2018-02-08T10:01:25.666Z,13.17
2018-02-08T10:03:54.075Z,14.34
2018-02-08T10:06:22.504Z,12.11
2018-02-08T10:08:50.962Z,13.93
2018-02-08T10:11:19.424Z,14.27
2018-02-08T10:13:47.822Z,15.79
2018-02-08T10:16:16.233Z,13.48
2018-02-08T10:18:44.651Z,11.77
2018-02-08T10:21:13.094Z,10.56
2018-02-08T10:23:41.561Z,10.05
2018-02-08T10:26:09.983Z,9.73
2018-02-08T10:28:38.434Z,10.36
2018-02-08T10:31:06.835Z,9.71
2018-02-08T10:33:35.268Z,10.04
2018-02-08T10:36:03.811Z,10.92
2018-02-08T10:38:32.216Z,13.35
2018-02-08T10:41:00.656Z,12.30
2018-02-08T10:43:29.055Z,12.10
2018-02-08T10:45:57.479Z,12.44
2018-02-08T10:48:26.055Z,12.15
2018-02-08T10:50:54.461Z,11.78
2018-02-08T10:53:22.889Z,10.51
2018-02-08T10:55:51.306Z,9.89
2018-02-08T10:58:19.725Z,8.75
2018-02-08T11:00:48.193Z,7.92
2018-02-08T11:03:16.587Z,7.99
2018-02-08T11:05:45.011Z,8.14
2018-02-08T11:08:13.415Z,8.06
2018-02-08T11:10:41.822Z,8.00
2018-02-08T11:13:10.297Z,8.75
2018-02-08T11:15:38.701Z,9.13
2018-02-08T11:18:07.108Z,8.30
2018-02-08T11:20:35.532Z,7.40
2018-02-08T11:23:03.940Z,6.39
2018-02-08T11:25:32.419Z,6.03
2018-02-08T11:28:00.896Z,6.04
2018-02-08T11:30:29.298Z,6.43
2018-02-08T11:32:57.719Z,6.78
2018-02-08T11:35:26.140Z,6.39
2018-02-08T11:37:54.641Z,6.20
2018-02-08T11:40:23.049Z,7.04
2018-02-08T11:42:51.474Z,6.94
2018-02-08T11:45:19.881Z,6.98
2018-02-08T11:47:48.306Z,7.44
2018-02-08T11:50:16.842Z,6.83
2018-02-08T11:52:45.336Z,6.38
2018-02-08T11:55:13.778Z,7.15
2018-02-08T11:57:42.170Z,6.68
2018-02-08T12:00:10.629Z,6.39
2018-02-08T12:02:39.163Z,6.74
2018-02-08T12:05:07.571Z,6.74
2018-02-08T12:07:35.987Z,7.56
2018-02-08T12:10:04.423Z,7.95
2018-02-08T12:12:32.861Z,8.18
2018-02-08T12:15:01.381Z,9.18
2018-02-08T12:17:29.843Z,10.35
2018-02-08T12:19:58.258Z,10.86
2018-02-08T12:22:26.675Z,10.91
2018-02-08T12:24:55.157Z,11.28
2018-02-08T12:27:23.710Z,11.32
2018-02-08T12:29:52.107Z,10.84
2018-02-08T12:32:20.553Z,10.94
2018-02-08T12:34:48.952Z,10.26
2018-02-08T12:37:17.374Z,10.29
2018-02-08T12:39:45.870Z,10.21
2018-02-08T12:42:14.290Z,9.75
2018-02-08T12:44:42.709Z,10.58
2018-02-08T12:47:11.129Z,11.31
2018-02-08T12:49:39.542Z,11.82
2018-02-08T12:52:08.040Z,11.84
2018-02-08T12:54:36.461Z,13.08
2018-02-08T12:57:04.911Z,13.97
2018-02-08T12:59:33.400Z,13.91
2018-02-08T13:02:01.846Z,13.87
2018-02-08T13:04:30.320Z,14.54
2018-02-08T13:06:58.720Z,14.29
2018-02-08T13:09:27.141Z,13.71
2018-02-08T13:11:55.598Z,12.45
2018-02-08T13:14:24.007Z,13.47
2018-02-08T13:16:52.487Z,12.03
2018-02-08T13:19:20.895Z,11.06
2018-02-08T13:21:49.313Z,11.30
2018-02-08T13:24:17.736Z,11.03
2018-02-08T13:26:46.333Z,10.92
2018-02-08T13:29:15.342Z,11.16
2018-02-08T13:31:45.261Z,11.19
2018-02-08T13:34:13.829Z,9.66
2018-02-08T13:36:42.862Z,9.34
2018-02-08T13:42:20.631Z,8.36
2018-02-08T13:44:49.034Z,8.80
2018-02-08T13:47:34.150Z,8.46
2018-02-08T13:53:35.487Z,8.65
2018-02-08T13:56:04.331Z,8.07
2018-02-08T14:01:40.729Z,7.73
2018-02-08T14:04:09.942Z,7.29
2018-02-08T14:06:38.545Z,7.05
2018-02-08T14:09:06.955Z,6.66
2018-02-08T14:11:35.422Z,7.63
2018-02-08T14:14:03.819Z,7.20
2018-02-08T14:16:32.264Z,7.06
2018-02-08T14:19:00.770Z,7.18
2018-02-08T14:21:29.187Z,7.22
2018-02-08T14:23:57.677Z,7.42
2018-02-08T14:26:26.162Z,7.13
2018-02-08T14:28:54.560Z,6.74
2018-02-08T14:31:23.339Z,6.63
2018-02-08T14:33:51.716Z,6.68
2018-02-08T14:36:20.166Z,6.81
2018-02-08T14:38:49.470Z,6.95
2018-02-08T14:41:17.896Z,7.15
2018-02-08T14:43:46.429Z,7.10
2018-02-08T14:46:14.852Z,6.79
2018-02-08T14:48:43.359Z,6.83
2018-02-08T14:51:11.788Z,7.06
2018-02-08T14:53:40.198Z,7.00
2018-02-08T14:56:08.753Z,6.68
2018-02-08T14:58:37.273Z,6.41
2018-02-08T15:01:05.670Z,6.66
2018-02-08T15:03:34.134Z,6.59
2018-02-08T15:06:05.051Z,6.69
2018-02-08T15:08:33.549Z,6.19
2018-02-08T15:11:01.963Z,6.04
2018-02-08T15:13:32.195Z,5.71
2018-02-08T15:16:00.609Z,5.42
2018-02-08T15:18:29.038Z,5.31
2018-02-08T15:20:57.885Z,5.03
2018-02-08T15:23:26.304Z,4.90
2018-02-08T15:25:54.796Z,4.89
2018-02-08T15:28:23.182Z,4.83
2018-02-08T15:30:51.603Z,4.85
2018-02-08T15:33:20.085Z,4.78
2018-02-08T15:35:48.602Z,4.64
2018-02-08T15:38:17.041Z,4.89
2018-02-08T15:40:45.593Z,4.85
2018-02-08T15:43:14.382Z,4.38
2018-02-08T15:45:44.869Z,4.96
2018-02-08T15:48:13.252Z,4.64
2018-02-08T15:50:41.812Z,4.67
2018-02-08T15:53:10.335Z,4.47
2018-02-08T15:55:38.753Z,4.45
2018-02-08T15:58:07.231Z,4.31
2018-02-08T16:00:36.414Z,4.82
2018-02-08T16:03:05.072Z,4.30
2018-02-08T16:05:33.459Z,4.48
2018-02-08T16:08:01.845Z,4.20
2018-02-08T16:10:30.253Z,4.18
2018-02-08T16:12:59.072Z,4.01
2018-02-08T16:15:27.649Z,4.22
2018-02-08T16:17:56.092Z,3.72
2018-02-08T16:20:24.542Z,3.56
2018-02-08T16:22:52.954Z,3.79
2018-02-08T16:25:21.363Z,3.65
2018-02-08T16:27:50.777Z,3.40
2018-02-08T16:30:19.401Z,3.55
2018-02-08T16:32:47.820Z,3.44
2018-02-08T16:35:16.381Z,3.51
2018-02-08T16:37:44.831Z,3.22
2018-02-08T16:40:13.307Z,3.18
2018-02-08T16:42:41.724Z,3.36
2018-02-08T16:45:10.141Z,3.22
2018-02-08T16:47:38.531Z,3.22
2018-02-08T16:50:07.126Z,3.44
2018-02-08T16:52:35.676Z,2.91
2018-02-08T16:55:04.120Z,2.75
2018-02-08T16:57:32.671Z,2.63
2018-02-08T17:00:01.060Z,2.91
2018-02-08T17:02:29.462Z,2.95
2018-02-08T17:04:58.349Z,2.12
2018-02-08T17:07:26.875Z,2.04
2018-02-08T17:09:55.287Z,2.42
2018-02-08T17:12:23.792Z,2.39
2018-02-08T17:14:52.183Z,2.22
2018-02-08T17:17:20.672Z,2.15
2018-02-08T17:19:49.061Z,2.19
2018-02-08T17:22:17.587Z,2.34
2018-02-08T17:24:46.164Z,1.89
2018-02-08T17:27:15.012Z,1.78
2018-02-08T17:29:43.787Z,1.63
2018-02-08T17:32:12.295Z,1.62
2018-02-08T17:34:40.724Z,1.54
2018-02-08T17:37:09.147Z,1.77
2018-02-08T17:39:37.590Z,1.45
2018-02-08T17:42:06.152Z,1.51
2018-02-08T17:44:34.577Z,1.36
2018-02-08T17:47:02.975Z,1.43
2018-02-08T17:49:31.496Z,1.28
2018-02-08T17:52:00.018Z,1.17
2018-02-08T17:54:29.295Z,1.14
2018-02-08T17:56:57.706Z,1.16
2018-02-08T17:59:26.179Z,1.25
2018-02-08T18:01:54.579Z,0.81
2018-02-08T18:04:23.013Z,0.83
2018-02-08T18:06:52.350Z,1.34
2018-02-08T18:09:20.899Z,1.04
2018-02-08T18:11:49.315Z,1.35
2018-02-08T18:16:52.490Z,1.29
2018-02-08T18:19:21.020Z,0.95
2018-02-08T18:21:49.498Z,0.49
2018-02-08T18:24:17.990Z,0.46
2018-02-08T18:26:46.490Z,0.38
2018-02-08T18:29:14.875Z,0.27
2018-02-08T18:31:43.411Z,0.53
2018-02-08T18:34:11.828Z,0.88
2018-02-08T18:36:40.223Z,1.00
2018-02-08T18:39:08.707Z,1.07
2018-02-08T18:41:38.058Z,0.56
2018-02-08T18:44:06.546Z,0.90
2018-02-08T18:46:34.958Z,1.00
2018-02-08T18:49:03.459Z,0.69
2018-02-08T18:51:31.849Z,0.49
2018-02-08T18:54:00.280Z,0.65
2018-02-08T18:56:28.780Z,0.71
2018-02-08T18:58:58.248Z,0.70
2018-02-08T19:01:26.715Z,0.70
2018-02-08T19:03:55.162Z,0.66
2018-02-08T19:06:23.529Z,0.58
2018-02-08T19:08:51.956Z,0.62
2018-02-08T19:11:20.437Z,0.36
2018-02-08T19:13:48.927Z,0.18
2018-02-08T19:16:17.459Z,0.42
2018-02-08T19:18:45.858Z,0.37
2018-02-08T19:21:14.246Z,-0.34
2018-02-08T19:23:42.852Z,0.16
2018-02-08T19:26:11.309Z,0.60
2018-02-08T19:28:40.461Z,0.79
2018-02-08T19:31:08.950Z,0.21
2018-02-08T19:33:37.326Z,0.35
2018-02-08T19:36:05.746Z,0.07
2018-02-08T19:38:34.205Z,0.13
2018-02-08T19:41:02.666Z,0.07
2018-02-08T19:43:31.087Z,-0.34
2018-02-08T19:45:59.554Z,-0.21
2018-02-08T19:48:27.965Z,-0.16
2018-02-08T19:50:56.455Z,-0.11
2018-02-08T19:53:24.872Z,-0.25
2018-02-08T19:55:53.425Z,-0.08
2018-02-08T19:58:21.879Z,-0.07
2018-02-08T20:00:50.288Z,0.04
2018-02-08T20:03:18.769Z,0.21
2018-02-08T20:05:47.165Z,0.07
2018-02-08T20:08:15.843Z,-0.11
2018-02-08T20:10:44.231Z,-0.18
2018-02-08T20:13:13.436Z,-0.16
2018-02-08T20:15:41.948Z,-0.13
2018-02-08T20:18:10.410Z,-0.72
2018-02-08T20:20:38.943Z,-0.80
2018-02-08T20:23:07.361Z,-0.28
2018-02-08T20:25:41.883Z,0.08
2018-02-08T20:28:10.431Z,0.16
2018-02-08T20:30:38.848Z,-0.20
2018-02-08T20:33:07.288Z,-0.25
2018-02-08T20:35:35.755Z,0.13
2018-02-08T20:38:04.247Z,0.39
2018-02-08T20:40:32.654Z,0.30
2018-02-08T20:43:07.578Z,-0.05
2018-02-08T20:45:35.982Z,-0.01
2018-02-08T20:48:04.396Z,0.12
2018-02-08T20:50:32.852Z,-0.04
2018-02-08T20:53:01.276Z,-0.08
2018-02-08T20:55:29.779Z,-0.25
2018-02-08T20:57:58.206Z,-0.32
2018-02-08T21:00:26.732Z,0.02
2018-02-08T21:02:55.131Z,-0.04
2018-02-08T21:05:23.579Z,-0.65
2018-02-08T21:07:52.040Z,-0.28
2018-02-08T21:10:20.425Z,-0.31
2018-02-08T21:12:48.936Z,-0.49
2018-02-08T21:15:17.412Z,-1.07
2018-02-08T21:17:45.882Z,-0.59
2018-02-08T21:20:14.362Z,-0.78
2018-02-08T21:22:42.789Z,-0.70
2018-02-08T21:25:11.303Z,-0.66
2018-02-08T21:27:39.719Z,-0.32
2018-02-08T21:30:08.108Z,-0.31
2018-02-08T21:32:36.653Z,-0.92
2018-02-08T21:35:05.161Z,-0.84
2018-02-08T21:37:33.882Z,-0.95
2018-02-08T21:40:02.360Z,-0.70
2018-02-08T21:42:30.884Z,-0.73
2018-02-08T21:44:59.330Z,-0.82
2018-02-08T21:47:27.758Z,-0.51
2018-02-08T21:49:56.232Z,-0.77
2018-02-08T21:52:24.704Z,-0.81
2018-02-08T21:54:53.715Z,-1.08
2018-02-08T21:57:22.165Z,-1.09
2018-02-08T21:59:50.639Z,-1.46
2018-02-08T22:02:19.170Z,-1.04
2018-02-08T22:04:47.681Z,-1.17
2018-02-08T22:07:16.098Z,-1.25
2018-02-08T22:09:44.698Z,-0.77
2018-02-08T22:12:13.957Z,-1.01
2018-02-08T22:14:42.435Z,-0.81
2018-02-08T22:17:10.965Z,-0.77
2018-02-08T22:19:39.381Z,-1.06
2018-02-08T22:22:07.804Z,-0.81
2018-02-08T22:24:36.206Z,-1.23
2018-02-08T22:27:04.687Z,-1.00
2018-02-08T22:29:33.104Z,-1.15
2018-02-08T22:32:01.667Z,-1.21
2018-02-08T22:34:30.035Z,-1.16
2018-02-08T22:36:58.480Z,-1.05
2018-02-08T22:39:26.864Z,-1.33
2018-02-08T22:41:55.378Z,-1.38
2018-02-08T22:44:23.794Z,-1.58
2018-02-08T22:46:52.228Z,-1.40
2018-02-08T22:49:20.716Z,-1.27
2018-02-08T22:51:49.143Z,-1.47
2018-02-08T22:54:17.608Z,-1.91
2018-02-08T22:56:46.028Z,-1.83
2018-02-08T22:59:14.462Z,-1.59
2018-02-08T23:01:43.071Z,-1.46
2018-02-08T23:04:11.484Z,-1.53
2018-02-08T23:06:40.028Z,-1.35
2018-02-08T23:09:08.548Z,-1.62
2018-02-08T23:11:36.966Z,-1.45
2018-02-08T23:14:05.527Z,-1.21
2018-02-08T23:16:34.018Z,-1.27
2018-02-08T23:19:02.491Z,-1.36
2018-02-08T23:21:30.956Z,-1.41
2018-02-08T23:23:59.381Z,-1.54
2018-02-08T23:26:27.784Z,-1.77
2018-02-08T23:28:56.208Z,-1.95
2018-02-08T23:31:24.712Z,-1.46
2018-02-08T23:33:53.106Z,-1.57
2018-02-08T23:36:21.581Z,-1.63
2018-02-08T23:38:50.074Z,-1.86
2018-02-08T23:41:18.484Z,-1.67
2018-02-08T23:43:46.931Z,-1.51
2018-02-08T23:46:15.329Z,-1.29
2018-02-08T23:48:43.834Z,-1.44
2018-02-08T23:51:12.257Z,-1.70
2018-02-08T23:53:40.650Z,-1.62
2018-02-08T23:56:09.079Z,-1.95
2018-02-08T23:58:37.478Z,-1.86
